Time;durP1;ratioP1;P1;durP2;ratioP2;P2;SDS_P1;SDS_P2;PMS_P1;PMS_P2;Temp;Humidity;BMP_temperature;BMP_pressure;BME280_temperature;BME280_humidity;BME280_pressure;Samples;Min_cycle;Max_cycle;Signal;HPM_P1;HPM_P2
2022/01/08 00:01:11;;;;;;;57.10;19.92;;;;;;;;;;4935523;29;20082;-83
2022/01/08 00:03:39;;;;;;;47.28;20.02;;;;;;;;;;4928566;29;20079;-84
2022/01/08 00:06:07;;;;;;;52.33;19.95;;;;;;;;;;4950906;28;20134;-84
2022/01/08 00:08:34;;;;;;;54.88;19.77;;;;;;;;;;4949041;29;20086;-84
2022/01/08 00:11:01;;;;;;;52.10;19.55;;;;;;;;;;4961492;28;20457;-84
2022/01/08 00:13:28;;;;;;;52.85;21.15;;;;;;;;;;4931756;29;20134;-84
2022/01/08 00:15:56;;;;;;;54.25;19.25;;;;;;;;;;4933721;29;20079;-83
2022/01/08 00:18:23;;;;;;;50.90;20.08;;;;;;;;;;4965540;28;20134;-83
2022/01/08 00:20:51;;;;;;;57.03;20.50;;;;;;;;;;4957255;28;20048;-83
2022/01/08 00:23:18;;;;;;;44.67;18.83;;;;;;;;;;4941340;29;20058;-84
2022/01/08 00:25:45;;;;;;;54.63;20.27;;;;;;;;;;4961190;28;20043;-83
2022/01/08 00:28:12;;;;;;;50.03;19.98;;;;;;;;;;4939210;29;20834;-83
2022/01/08 00:30:39;;;;;;;50.45;18.77;;;;;;;;;;4944213;29;20143;-83
2022/01/08 00:33:06;;;;;;;54.10;19.90;;;;;;;;;;4939691;29;20078;-83
2022/01/08 00:35:33;;;;;;;56.08;20.05;;;;;;;;;;4936700;29;20815;-84
2022/01/08 00:38:01;;;;;;;49.70;18.48;;;;;;;;;;4938948;29;20056;-84
2022/01/08 00:40:29;;;;;;;52.75;19.85;;;;;;;;;;4938879;29;20130;-84
2022/01/08 00:42:56;;;;;;;57.20;20.80;;;;;;;;;;4943859;29;20079;-83
2022/01/08 00:45:23;;;;;;;59.88;19.65;;;;;;;;;;4936876;29;20085;-84
2022/01/08 00:47:50;;;;;;;51.00;21.10;;;;;;;;;;4935606;29;20697;-83
2022/01/08 00:50:23;;;;;;;55.08;21.30;;;;;;;;;;4920455;29;20055;-84
2022/01/08 00:52:50;;;;;;;58.00;20.00;;;;;;;;;;4931028;29;20155;-84
2022/01/08 00:55:17;;;;;;;57.58;20.98;;;;;;;;;;4936795;29;20130;-83
2022/01/08 00:57:45;;;;;;;51.65;20.48;;;;;;;;;;4952583;29;20205;-83
2022/01/08 01:00:13;;;;;;;58.03;21.23;;;;;;;;;;4928980;29;20048;-83
2022/01/08 01:02:41;;;;;;;56.50;20.35;;;;;;;;;;4934347;29;20056;-84
2022/01/08 01:05:09;;;;;;;48.63;18.80;;;;;;;;;;4938261;29;20067;-84
2022/01/08 01:07:36;;;;;;;58.13;20.52;;;;;;;;;;4925990;29;20130;-84
2022/01/08 01:10:04;;;;;;;51.75;19.70;;;;;;;;;;4942627;29;20047;-84
2022/01/08 01:12:31;;;;;;;54.95;20.48;;;;;;;;;;4946585;29;20087;-84
2022/01/08 01:15:09;;;;;;;47.22;19.88;;;;;;;;;;4938176;29;20043;-83
2022/01/08 01:17:36;;;;;;;53.92;19.75;;;;;;;;;;4932064;29;20505;-85
2022/01/08 01:20:04;;;;;;;60.20;20.60;;;;;;;;;;4949927;29;20134;-84
2022/01/08 01:22:41;;;;;;;51.45;18.67;;;;;;;;;;4947318;29;20101;-83
2022/01/08 01:25:12;;;;;;;50.33;20.02;;;;;;;;;;4943115;29;20607;-84
2022/01/08 01:30:18;;;;;;;58.75;20.83;;;;;;;;;;4941514;29;20051;-84
2022/01/08 01:41:24;;;;;;;51.63;19.67;;;;;;;;;;4923310;29;20142;-83
2022/01/08 01:49:07;;;;;;;52.15;19.83;;;;;;;;;;4936012;29;20071;-84
2022/01/08 01:51:34;;;;;;;51.92;20.83;;;;;;;;;;4933436;29;20086;-84
2022/01/08 01:54:04;;;;;;;58.38;20.08;;;;;;;;;;4935861;29;20148;-84
2022/01/08 01:56:31;;;;;;;60.58;20.33;;;;;;;;;;4954020;28;20052;-84
2022/01/08 01:58:58;;;;;;;54.53;19.67;;;;;;;;;;4927783;29;20458;-84
2022/01/08 02:01:25;;;;;;;52.60;19.92;;;;;;;;;;4944248;29;20130;-84
2022/01/08 02:03:53;;;;;;;52.25;20.15;;;;;;;;;;4938675;29;20091;-84
2022/01/08 02:06:20;;;;;;;55.53;19.98;;;;;;;;;;4935353;29;20490;-84
2022/01/08 02:08:48;;;;;;;51.08;20.15;;;;;;;;;;4939876;29;20094;-84
2022/01/08 02:11:17;;;;;;;56.17;19.40;;;;;;;;;;4953218;29;20477;-84
2022/01/08 02:13:49;;;;;;;47.10;18.87;;;;;;;;;;4954016;28;20047;-84
2022/01/08 02:16:17;;;;;;;59.60;21.30;;;;;;;;;;4953205;28;20390;-84
2022/01/08 02:18:45;;;;;;;52.00;20.25;;;;;;;;;;4935463;29;20059;-85
2022/01/08 02:21:13;;;;;;;48.45;19.17;;;;;;;;;;4950833;29;20075;-84
2022/01/08 02:23:40;;;;;;;50.08;19.10;;;;;;;;;;4948119;29;20090;-84
2022/01/08 02:26:09;;;;;;;50.90;19.55;;;;;;;;;;4947302;28;20134;-84
2022/01/08 02:28:37;;;;;;;52.42;19.50;;;;;;;;;;4934920;29;20134;-85
2022/01/08 02:31:06;;;;;;;54.85;19.35;;;;;;;;;;4950711;29;20729;-85
2022/01/08 02:33:34;;;;;;;50.92;18.67;;;;;;;;;;4929635;29;20078;-76
2022/01/08 02:36:05;;;;;;;47.75;18.83;;;;;;;;;;4942878;29;20130;-76
2022/01/08 02:38:32;;;;;;;48.97;19.58;;;;;;;;;;4956779;28;20094;-76
2022/01/08 02:41:03;;;;;;;55.13;19.67;;;;;;;;;;4935559;29;20155;-76
2022/01/08 02:43:33;;;;;;;57.50;19.05;;;;;;;;;;4933495;29;20087;-76
2022/01/08 02:46:01;;;;;;;49.70;19.23;;;;;;;;;;4932355;29;20064;-76
2022/01/08 02:48:28;;;;;;;54.67;19.65;;;;;;;;;;4931857;29;20052;-76
2022/01/08 02:50:55;;;;;;;55.70;22.33;;;;;;;;;;4943568;29;20322;-76
2022/01/08 02:53:22;;;;;;;54.63;20.05;;;;;;;;;;4936179;29;20075;-76
2022/01/08 02:55:51;;;;;;;48.50;18.27;;;;;;;;;;4936998;29;20054;-76
2022/01/08 02:58:19;;;;;;;49.95;18.52;;;;;;;;;;4931774;29;20589;-77
2022/01/08 03:00:46;;;;;;;47.92;17.27;;;;;;;;;;4948728;28;20717;-76
2022/01/08 03:03:14;;;;;;;43.85;16.67;;;;;;;;;;4948840;28;20572;-76
2022/01/08 03:05:41;;;;;;;51.90;17.42;;;;;;;;;;4953317;28;20055;-76
2022/01/08 03:08:08;;;;;;;54.65;17.60;;;;;;;;;;4935259;29;20675;-76
2022/01/08 03:10:35;;;;;;;46.50;16.08;;;;;;;;;;4931829;29;20163;-76
2022/01/08 03:13:04;;;;;;;42.78;16.85;;;;;;;;;;4950193;28;20130;-76
2022/01/08 03:15:34;;;;;;;45.67;16.33;;;;;;;;;;4954684;28;20130;-76
2022/01/08 03:18:04;;;;;;;56.05;16.42;;;;;;;;;;4927540;29;20462;-76
2022/01/08 03:20:33;;;;;;;44.50;16.30;;;;;;;;;;4938066;29;20055;-76
2022/01/08 03:23:05;;;;;;;49.00;16.20;;;;;;;;;;4931081;29;20043;-75
2022/01/08 03:25:32;;;;;;;44.60;15.05;;;;;;;;;;4928899;29;20669;-75
2022/01/08 03:27:59;;;;;;;42.13;14.90;;;;;;;;;;4934010;29;20098;-75
2022/01/08 03:30:28;;;;;;;48.95;15.52;;;;;;;;;;4927976;29;20083;-76
2022/01/08 03:32:55;;;;;;;50.58;15.25;;;;;;;;;;4927922;29;20158;-75
2022/01/08 03:35:22;;;;;;;38.60;14.57;;;;;;;;;;4934283;29;20825;-75
2022/01/08 03:37:49;;;;;;;48.92;15.73;;;;;;;;;;4937151;29;20051;-75
2022/01/08 03:40:17;;;;;;;49.17;17.08;;;;;;;;;;4938827;29;20497;-75
2022/01/08 03:42:45;;;;;;;49.88;16.05;;;;;;;;;;4949812;28;20066;-75
2022/01/08 03:45:12;;;;;;;48.97;16.85;;;;;;;;;;4935652;29;20467;-75
2022/01/08 03:50:30;;;;;;;49.00;16.27;;;;;;;;;;4909762;29;20138;-75
2022/01/08 03:52:57;;;;;;;35.03;13.27;;;;;;;;;;4929062;29;20610;-75
2022/01/08 03:55:24;;;;;;;36.95;13.98;;;;;;;;;;4936274;29;20058;-75
2022/01/08 03:57:51;;;;;;;38.97;15.20;;;;;;;;;;4928757;29;20083;-75
2022/01/08 04:00:18;;;;;;;35.03;13.43;;;;;;;;;;4939536;29;20726;-75
2022/01/08 04:02:46;;;;;;;34.88;13.90;;;;;;;;;;4928651;29;20074;-75
2022/01/08 04:05:13;;;;;;;33.47;10.57;;;;;;;;;;4929463;29;20080;-75
2022/01/08 04:07:40;;;;;;;27.55;11.93;;;;;;;;;;4919732;29;20106;-75
2022/01/08 04:10:07;;;;;;;34.08;11.60;;;;;;;;;;4928819;29;20142;-75
2022/01/08 04:12:43;;;;;;;35.80;10.40;;;;;;;;;;4930326;29;20047;-75
2022/01/08 04:17:51;;;;;;;36.95;9.48;;;;;;;;;;4930583;29;20048;-75
2022/01/08 04:20:18;;;;;;;37.35;10.55;;;;;;;;;;4935791;28;20493;-75
2022/01/08 04:22:48;;;;;;;29.55;9.23;;;;;;;;;;4943232;28;20085;-75
2022/01/08 04:25:16;;;;;;;30.55;9.13;;;;;;;;;;4927519;29;20446;-75
2022/01/08 04:27:43;;;;;;;29.90;8.82;;;;;;;;;;4927320;29;20481;-75
2022/01/08 04:30:11;;;;;;;24.70;9.10;;;;;;;;;;4927173;29;20048;-75
2022/01/08 04:32:39;;;;;;;29.13;8.65;;;;;;;;;;4927524;29;20134;-75
2022/01/08 04:35:07;;;;;;;26.92;8.27;;;;;;;;;;4930399;29;20054;-75
2022/01/08 04:37:34;;;;;;;24.60;8.60;;;;;;;;;;4936649;29;20190;-75
2022/01/08 04:40:01;;;;;;;23.23;8.65;;;;;;;;;;4929148;29;20134;-75
2022/01/08 04:42:28;;;;;;;21.27;8.25;;;;;;;;;;4947723;28;20441;-75
2022/01/08 04:44:55;;;;;;;24.20;8.32;;;;;;;;;;4926481;29;20057;-75
2022/01/08 04:47:22;;;;;;;34.67;8.65;;;;;;;;;;4926152;29;20083;-75
2022/01/08 04:49:50;;;;;;;30.15;8.05;;;;;;;;;;4940668;29;20662;-75
2022/01/08 04:52:17;;;;;;;21.55;8.40;;;;;;;;;;4924659;29;20150;-75
2022/01/08 04:57:53;;;;;;;27.77;7.97;;;;;;;;;;4964939;28;20869;-84
2022/01/08 05:00:22;;;;;;;23.73;8.32;;;;;;;;;;4976571;28;20121;-84
2022/01/08 05:02:49;;;;;;;24.40;8.40;;;;;;;;;;4972202;28;20051;-83
2022/01/08 05:05:16;;;;;;;25.63;7.88;;;;;;;;;;4953999;28;20563;-83
2022/01/08 05:07:44;;;;;;;16.90;6.88;;;;;;;;;;4954871;28;20055;-83
2022/01/08 05:10:11;;;;;;;22.30;6.97;;;;;;;;;;4978851;28;20081;-83
2022/01/08 05:12:38;;;;;;;22.33;7.53;;;;;;;;;;4962646;28;20084;-83
2022/01/08 05:15:06;;;;;;;21.65;7.57;;;;;;;;;;4981653;28;20547;-83
2022/01/08 05:17:38;;;;;;;20.55;7.18;;;;;;;;;;4962628;28;20078;-84
2022/01/08 05:20:10;;;;;;;18.27;7.15;;;;;;;;;;4965972;28;20055;-84
2022/01/08 05:25:18;;;;;;;20.83;7.40;;;;;;;;;;4968744;28;20055;-74
2022/01/08 05:27:46;;;;;;;20.70;7.95;;;;;;;;;;4966909;28;20082;-75
2022/01/08 05:30:14;;;;;;;20.95;6.25;;;;;;;;;;4950245;28;20629;-75
2022/01/08 05:32:41;;;;;;;18.17;7.25;;;;;;;;;;4952822;28;20134;-75
2022/01/08 05:35:08;;;;;;;17.77;7.22;;;;;;;;;;4968683;28;20055;-75
2022/01/08 05:37:36;;;;;;;20.75;7.60;;;;;;;;;;4966344;28;20146;-74
2022/01/08 05:40:03;;;;;;;18.77;6.60;;;;;;;;;;4965836;28;20142;-75
2022/01/08 05:42:30;;;;;;;22.73;7.45;;;;;;;;;;4951407;28;20118;-75
2022/01/08 05:44:57;;;;;;;18.70;7.03;;;;;;;;;;4966437;28;20058;-75
2022/01/08 05:47:29;;;;;;;16.58;6.18;;;;;;;;;;4968063;28;20206;-75
2022/01/08 05:49:56;;;;;;;19.75;6.63;;;;;;;;;;4974494;28;20493;-75
2022/01/08 05:52:24;;;;;;;21.90;7.55;;;;;;;;;;4952483;28;20142;-75
2022/01/08 05:54:51;;;;;;;17.13;6.55;;;;;;;;;;4972955;28;20051;-75
2022/01/08 05:57:18;;;;;;;16.50;7.60;;;;;;;;;;4967993;28;20043;-75
2022/01/08 05:59:45;;;;;;;24.40;8.00;;;;;;;;;;4974684;28;20054;-75
2022/01/08 06:02:14;;;;;;;19.33;6.95;;;;;;;;;;4970739;28;20119;-75
2022/01/08 06:04:41;;;;;;;19.67;6.78;;;;;;;;;;4955495;28;20086;-75
2022/01/08 06:07:09;;;;;;;20.10;6.13;;;;;;;;;;4968818;28;20050;-75
2022/01/08 06:09:36;;;;;;;15.48;6.63;;;;;;;;;;4974346;28;20092;-75
2022/01/08 06:12:04;;;;;;;21.88;7.53;;;;;;;;;;4970442;28;20133;-75
2022/01/08 06:14:31;;;;;;;20.88;7.22;;;;;;;;;;4970583;28;20133;-75
2022/01/08 06:16:58;;;;;;;20.92;7.20;;;;;;;;;;4969921;28;20074;-75
2022/01/08 06:19:25;;;;;;;21.10;6.57;;;;;;;;;;4947967;28;20169;-75
2022/01/08 06:21:52;;;;;;;21.05;6.70;;;;;;;;;;4974541;28;20145;-75
2022/01/08 06:24:20;;;;;;;27.83;7.93;;;;;;;;;;4973744;28;20051;-75
2022/01/08 06:26:47;;;;;;;20.77;7.13;;;;;;;;;;4950916;28;20138;-75
2022/01/08 06:29:14;;;;;;;22.17;7.45;;;;;;;;;;4966865;28;20098;-74
2022/01/08 06:31:41;;;;;;;21.67;7.90;;;;;;;;;;4970196;28;20142;-74
2022/01/08 06:34:08;;;;;;;19.80;8.07;;;;;;;;;;4955949;28;20105;-74
2022/01/08 06:36:35;;;;;;;26.23;9.23;;;;;;;;;;4975809;28;20746;-75
2022/01/08 06:39:03;;;;;;;23.40;8.25;;;;;;;;;;4973870;28;20047;-75
2022/01/08 06:41:30;;;;;;;21.63;6.63;;;;;;;;;;4975318;28;20158;-75
2022/01/08 06:43:58;;;;;;;21.15;7.55;;;;;;;;;;4970420;28;20081;-75
2022/01/08 06:46:25;;;;;;;19.73;7.43;;;;;;;;;;4972373;28;20055;-75
2022/01/08 06:48:53;;;;;;;19.85;7.72;;;;;;;;;;4971603;28;20057;-75
2022/01/08 06:51:20;;;;;;;21.92;7.00;;;;;;;;;;4962226;28;20055;-75
2022/01/08 06:53:47;;;;;;;20.23;7.35;;;;;;;;;;4950367;28;20137;-75
2022/01/08 06:56:14;;;;;;;21.35;6.82;;;;;;;;;;4966507;28;20588;-75
2022/01/08 06:58:42;;;;;;;20.02;7.93;;;;;;;;;;4967714;28;20042;-74
2022/01/08 07:01:09;;;;;;;16.65;6.70;;;;;;;;;;4965295;28;20480;-75
2022/01/08 07:03:36;;;;;;;19.95;7.30;;;;;;;;;;4964915;28;20050;-76
2022/01/08 07:06:04;;;;;;;17.35;7.53;;;;;;;;;;4970643;28;20138;-75
2022/01/08 07:08:31;;;;;;;19.38;7.05;;;;;;;;;;4951342;28;20082;-76
2022/01/08 07:10:58;;;;;;;15.52;6.80;;;;;;;;;;4954887;28;20081;-75
2022/01/08 07:13:26;;;;;;;18.08;6.88;;;;;;;;;;4965305;28;20417;-75
2022/01/08 07:15:53;;;;;;;17.38;7.30;;;;;;;;;;4944313;28;20082;-75
2022/01/08 07:18:20;;;;;;;24.45;7.72;;;;;;;;;;4964364;28;20057;-75
2022/01/08 07:20:47;;;;;;;18.15;7.22;;;;;;;;;;4959067;28;20133;-75
2022/01/08 07:23:14;;;;;;;17.38;7.65;;;;;;;;;;4945565;28;20153;-75
2022/01/08 07:25:42;;;;;;;26.05;8.00;;;;;;;;;;4949483;28;20158;-75
2022/01/08 07:28:09;;;;;;;24.10;8.05;;;;;;;;;;4973366;28;20050;-75
2022/01/08 07:30:36;;;;;;;17.95;7.80;;;;;;;;;;4970994;28;20054;-75
2022/01/08 07:33:03;;;;;;;21.95;7.90;;;;;;;;;;4957664;28;20129;-75
2022/01/08 07:35:30;;;;;;;17.23;7.65;;;;;;;;;;4974868;28;20090;-75
2022/01/08 07:37:57;;;;;;;17.92;7.57;;;;;;;;;;4969345;28;20494;-75
2022/01/08 07:40:25;;;;;;;19.30;7.82;;;;;;;;;;4979168;28;20086;-75
2022/01/08 07:42:52;;;;;;;16.30;7.18;;;;;;;;;;4958465;28;20086;-75
2022/01/08 07:45:22;;;;;;;19.30;7.00;;;;;;;;;;4979701;28;20130;-75
2022/01/08 07:47:49;;;;;;;18.90;8.02;;;;;;;;;;4959033;28;20046;-75
2022/01/08 07:50:17;;;;;;;21.13;8.75;;;;;;;;;;4968583;28;20051;-75
2022/01/08 07:52:44;;;;;;;17.13;7.90;;;;;;;;;;4969561;28;20137;-75
2022/01/08 07:55:13;;;;;;;26.38;8.40;;;;;;;;;;4967435;28;20137;-75
2022/01/08 07:57:40;;;;;;;25.55;7.90;;;;;;;;;;4968931;28;20065;-75
2022/01/08 08:00:07;;;;;;;24.52;8.88;;;;;;;;;;4979021;28;20383;-75
2022/01/08 08:02:34;;;;;;;20.05;8.10;;;;;;;;;;4960199;28;20141;-75
2022/01/08 08:05:02;;;;;;;19.88;7.82;;;;;;;;;;4975649;28;20047;-75
2022/01/08 08:07:31;;;;;;;21.17;8.68;;;;;;;;;;4957270;28;20070;-75
2022/01/08 08:09:58;;;;;;;19.05;7.57;;;;;;;;;;4978817;28;20046;-74
2022/01/08 08:12:25;;;;;;;25.83;8.73;;;;;;;;;;4974722;28;20053;-75
2022/01/08 08:14:52;;;;;;;24.75;8.60;;;;;;;;;;4966703;28;20133;-75
2022/01/08 08:17:19;;;;;;;25.02;8.77;;;;;;;;;;4967802;28;20114;-75
2022/01/08 08:19:46;;;;;;;23.98;8.00;;;;;;;;;;4979867;28;20596;-75
2022/01/08 08:22:14;;;;;;;21.25;7.70;;;;;;;;;;4972135;28;20089;-75
2022/01/08 08:24:41;;;;;;;21.35;8.05;;;;;;;;;;4975120;28;20082;-74
2022/01/08 08:27:09;;;;;;;22.50;7.63;;;;;;;;;;4966361;28;20055;-74
2022/01/08 08:29:38;;;;;;;17.65;8.23;;;;;;;;;;4979080;28;20133;-75
2022/01/08 08:32:05;;;;;;;19.73;7.22;;;;;;;;;;4949296;28;20043;-75
2022/01/08 08:34:33;;;;;;;20.45;7.88;;;;;;;;;;4948925;28;20078;-74
2022/01/08 08:37:00;;;;;;;19.70;8.07;;;;;;;;;;4974892;28;20065;-74
2022/01/08 08:39:27;;;;;;;18.42;7.88;;;;;;;;;;4958132;28;20074;-75
2022/01/08 08:41:54;;;;;;;17.83;8.05;;;;;;;;;;4945269;28;20142;-75
2022/01/08 08:44:25;;;;;;;23.30;8.52;;;;;;;;;;4957380;28;20121;-83
2022/01/08 08:46:53;;;;;;;21.40;8.07;;;;;;;;;;4968979;28;20086;-82
2022/01/08 08:49:22;;;;;;;35.05;8.82;;;;;;;;;;4969527;28;20150;-79
2022/01/08 08:51:50;;;;;;;22.85;8.00;;;;;;;;;;4954435;28;20065;-81
2022/01/08 08:54:17;;;;;;;27.20;8.90;;;;;;;;;;4962407;28;20513;-76
2022/01/08 08:56:44;;;;;;;24.15;8.48;;;;;;;;;;4970519;28;20153;-76
2022/01/08 08:59:11;;;;;;;20.80;8.50;;;;;;;;;;4973455;28;20444;-77
2022/01/08 09:01:38;;;;;;;20.85;8.90;;;;;;;;;;4956210;28;20182;-77
2022/01/08 09:04:06;;;;;;;21.63;9.05;;;;;;;;;;4960986;28;20782;-77
2022/01/08 09:06:33;;;;;;;19.77;9.05;;;;;;;;;;4968335;28;20055;-78
2022/01/08 09:09:01;;;;;;;26.20;8.20;;;;;;;;;;4960411;28;20085;-77
2022/01/08 09:11:28;;;;;;;19.55;9.00;;;;;;;;;;4967323;28;20129;-77
2022/01/08 09:13:55;;;;;;;29.90;8.27;;;;;;;;;;4957656;28;20076;-77
2022/01/08 09:16:22;;;;;;;22.88;8.93;;;;;;;;;;4965561;28;20054;-77
2022/01/08 09:18:50;;;;;;;28.00;8.52;;;;;;;;;;4949396;28;20121;-77
2022/01/08 09:21:17;;;;;;;22.33;8.82;;;;;;;;;;4953104;28;20125;-77
2022/01/08 09:23:44;;;;;;;22.80;8.80;;;;;;;;;;4972498;28;20129;-77
2022/01/08 09:26:12;;;;;;;21.70;8.82;;;;;;;;;;4975685;28;20057;-76
2022/01/08 09:28:39;;;;;;;22.45;8.48;;;;;;;;;;4984290;28;20090;-77
2022/01/08 09:31:06;;;;;;;20.13;8.85;;;;;;;;;;4951943;28;20421;-76
2022/01/08 09:33:33;;;;;;;30.30;9.77;;;;;;;;;;4969931;28;20129;-75
2022/01/08 09:36:01;;;;;;;22.58;9.18;;;;;;;;;;4969491;28;20654;-76
2022/01/08 09:38:28;;;;;;;24.83;8.77;;;;;;;;;;4973186;28;20499;-76
2022/01/08 09:40:55;;;;;;;23.30;9.30;;;;;;;;;;4975926;28;20134;-76
2022/01/08 09:43:23;;;;;;;21.38;9.30;;;;;;;;;;4982325;28;20086;-76
2022/01/08 09:45:50;;;;;;;20.23;9.10;;;;;;;;;;4956922;28;20152;-76
2022/01/08 09:48:17;;;;;;;25.80;9.30;;;;;;;;;;4953772;28;20130;-76
2022/01/08 09:50:45;;;;;;;25.90;9.88;;;;;;;;;;4951602;28;20125;-76
2022/01/08 09:53:12;;;;;;;24.65;10.13;;;;;;;;;;4978956;28;20136;-75
2022/01/08 09:55:39;;;;;;;39.00;16.88;;;;;;;;;;4954539;28;20121;-76
2022/01/08 09:58:07;;;;;;;28.25;10.70;;;;;;;;;;4971599;28;20054;-76
2022/01/08 10:00:35;;;;;;;24.38;9.93;;;;;;;;;;4949301;28;20158;-75
2022/01/08 10:03:23;;;;;;;24.27;10.02;;;;;;;;;;4963414;28;20126;-75
2022/01/08 10:05:56;;;;;;;26.35;10.00;;;;;;;;;;4977895;28;20051;-76
2022/01/08 10:08:43;;;;;;;29.95;11.18;;;;;;;;;;4966488;28;20058;-76
2022/01/08 10:11:11;;;;;;;26.95;9.35;;;;;;;;;;4975474;28;20137;-75
2022/01/08 10:13:40;;;;;;;21.63;9.38;;;;;;;;;;4965768;28;20170;-76
2022/01/08 10:18:57;;;;;;;23.02;8.93;;;;;;;;;;4965294;28;20808;-77
2022/01/08 10:21:26;;;;;;;20.77;9.60;;;;;;;;;;4974402;28;20071;-79
2022/01/08 10:23:57;;;;;;;23.00;10.18;;;;;;;;;;4950538;28;20214;-78
2022/01/08 10:26:32;;;;;;;57.45;12.80;;;;;;;;;;4969666;28;20134;-84
2022/01/08 10:29:00;;;;;;;27.20;10.60;;;;;;;;;;4975930;28;20411;-81
2022/01/08 10:31:27;;;;;;;29.15;10.75;;;;;;;;;;4958532;28;20082;-77
2022/01/08 10:33:54;;;;;;;33.70;12.60;;;;;;;;;;4976895;28;20136;-77
2022/01/08 10:36:23;;;;;;;21.85;9.55;;;;;;;;;;4968952;28;20133;-76
2022/01/08 10:38:51;;;;;;;25.00;9.80;;;;;;;;;;4951108;28;20150;-76
2022/01/08 10:41:19;;;;;;;29.63;10.35;;;;;;;;;;4956779;28;20046;-77
2022/01/08 10:43:46;;;;;;;19.95;9.10;;;;;;;;;;4978077;28;20136;-78
2022/01/08 10:46:18;;;;;;;32.70;10.43;;;;;;;;;;4956269;28;20471;-77
2022/01/08 10:48:49;;;;;;;24.45;9.52;;;;;;;;;;4949987;28;20097;-77
2022/01/08 10:51:16;;;;;;;27.92;10.55;;;;;;;;;;4950520;28;20129;-77
2022/01/08 10:53:50;;;;;;;26.42;9.73;;;;;;;;;;4946459;28;20078;-79
2022/01/08 10:56:25;;;;;;;37.47;11.25;;;;;;;;;;4953393;28;20094;-78
2022/01/08 10:58:55;;;;;;;30.58;10.70;;;;;;;;;;4963070;28;20042;-79
2022/01/08 11:01:42;;;;;;;22.85;10.13;;;;;;;;;;4973052;28;20042;-79
2022/01/08 11:04:12;;;;;;;28.77;10.35;;;;;;;;;;4963437;28;20551;-79
2022/01/08 11:06:56;;;;;;;26.80;10.60;;;;;;;;;;4968714;28;20051;-78
2022/01/08 11:09:24;;;;;;;29.52;11.18;;;;;;;;;;4947825;28;20129;-78
2022/01/08 11:11:52;;;;;;;26.13;10.50;;;;;;;;;;4948030;28;20087;-79
2022/01/08 11:14:46;;;;;;;26.70;10.18;;;;;;;;;;4965372;28;20047;-78
2022/01/08 11:17:31;;;;;;;26.45;11.13;;;;;;;;;;4963533;28;20082;-80
2022/01/08 11:20:02;;;;;;;22.65;9.70;;;;;;;;;;4964464;28;20046;-78
2022/01/08 11:22:30;;;;;;;28.08;11.05;;;;;;;;;;4952032;28;20089;-78
2022/01/08 11:25:03;;;;;;;26.33;10.32;;;;;;;;;;4948202;28;20078;-79
2022/01/08 11:27:39;;;;;;;33.60;10.63;;;;;;;;;;4966587;28;20051;-79
2022/01/08 11:30:23;;;;;;;24.58;10.63;;;;;;;;;;4965720;28;20552;-79
2022/01/08 11:32:53;;;;;;;25.77;11.00;;;;;;;;;;4968947;28;20070;-79
2022/01/08 11:35:35;;;;;;;24.48;9.30;;;;;;;;;;4948678;28;20055;-79
2022/01/08 11:38:06;;;;;;;24.63;10.85;;;;;;;;;;4952896;28;20117;-80
2022/01/08 11:40:35;;;;;;;21.83;9.85;;;;;;;;;;4951022;28;20105;-81
2022/01/08 11:43:04;;;;;;;19.83;8.63;;;;;;;;;;4953889;28;20126;-81
2022/01/08 11:45:33;;;;;;;27.50;10.55;;;;;;;;;;4961616;28;20086;-91
2022/01/08 11:51:16;;;;;;;20.38;9.60;;;;;;;;;;4994208;23;20053;-80
2022/01/08 11:53:50;;;;;;;25.85;10.32;;;;;;;;;;5006098;28;20085;-82
2022/01/08 11:56:26;;;;;;;21.52;9.15;;;;;;;;;;5003998;28;20158;-79
2022/01/08 11:58:53;;;;;;;;;;;;;;;;;;4970471;28;20045;-79
2022/01/08 12:01:24;;;;;;;25.90;10.23;;;;;;;;;;4974554;28;19961;-81
2022/01/08 12:03:52;;;;;;;28.92;10.00;;;;;;;;;;4988921;28;20495;-80
2022/01/08 12:06:19;;;;;;;22.80;9.63;;;;;;;;;;4976490;28;20054;-80
2022/01/08 12:11:59;;;;;;;26.60;10.10;;;;;;;;;;4989497;28;20149;-81
2022/01/08 12:14:27;;;;;;;25.60;9.60;;;;;;;;;;4969235;28;20121;-81
2022/01/08 12:16:55;;;;;;;25.08;9.77;;;;;;;;;;4974078;28;20133;-82
2022/01/08 12:19:36;;;;;;;26.35;9.90;;;;;;;;;;4972972;28;20690;-83
2022/01/08 12:22:18;;;;;;;26.10;10.60;;;;;;;;;;4978491;28;20490;-82
2022/01/08 12:24:56;;;;;;;24.55;9.07;;;;;;;;;;4995071;28;20050;-85
2022/01/08 12:27:43;;;;;;;27.58;9.82;;;;;;;;;;4968060;28;20110;-81
2022/01/08 12:30:16;;;;;;;26.30;10.70;;;;;;;;;;4988799;28;20077;-83
2022/01/08 12:32:52;;;;;;;23.08;9.70;;;;;;;;;;4974834;28;20050;-83
2022/01/08 12:37:55;;;;;;;22.27;9.40;;;;;;;;;;4986297;28;20746;-83
2022/01/08 12:40:39;;;;;;;25.57;8.50;;;;;;;;;;4973698;28;20373;-83
2022/01/08 12:43:21;;;;;;;21.85;9.10;;;;;;;;;;4981938;28;20350;-82
2022/01/08 12:45:50;;;;;;;35.10;15.32;;;;;;;;;;4973189;28;20078;-83
2022/01/08 12:48:21;;;;;;;31.73;10.50;;;;;;;;;;4963575;28;20050;-83
2022/01/08 12:50:49;;;;;;;30.75;9.32;;;;;;;;;;4969006;28;20054;-82
2022/01/08 12:53:23;;;;;;;30.15;10.90;;;;;;;;;;4965816;28;20713;-83
2022/01/08 12:56:02;;;;;;;24.75;9.60;;;;;;;;;;4968040;28;20129;-82
2022/01/08 12:58:34;;;;;;;28.80;11.52;;;;;;;;;;4960647;28;20577;-82
2022/01/08 13:01:07;;;;;;;29.63;11.10;;;;;;;;;;4987537;28;20101;-84
2022/01/08 13:03:42;;;;;;;31.00;9.90;;;;;;;;;;4973721;28;20050;-81
2022/01/08 13:06:12;;;;;;;26.50;9.45;;;;;;;;;;4997066;28;20129;-83
2022/01/08 13:08:41;;;;;;;21.70;9.27;;;;;;;;;;4981398;28;20696;-82
2022/01/08 13:11:09;;;;;;;22.75;8.45;;;;;;;;;;4973185;28;20138;-80
2022/01/08 13:13:47;;;;;;;25.27;9.63;;;;;;;;;;4988118;28;20049;-81
2022/01/08 13:16:36;;;;;;;29.95;11.00;;;;;;;;;;5000132;28;20049;-80
2022/01/08 13:19:07;;;;;;;26.45;10.45;;;;;;;;;;4972543;28;20074;-83
2022/01/08 13:21:42;;;;;;;25.15;10.20;;;;;;;;;;4983489;28;20053;-81
2022/01/08 13:24:16;;;;;;;29.38;9.57;;;;;;;;;;4973312;28;20110;-82
2022/01/08 13:26:44;;;;;;;22.52;9.90;;;;;;;;;;5001608;28;20145;-81
2022/01/08 13:29:20;;;;;;;21.48;9.15;;;;;;;;;;4991426;28;20093;-82
2022/01/08 13:31:49;;;;;;;27.88;10.57;;;;;;;;;;4981130;28;20085;-81
2022/01/08 13:34:17;;;;;;;26.05;9.25;;;;;;;;;;4973064;28;20057;-80
2022/01/08 13:36:58;;;;;;;24.58;8.52;;;;;;;;;;4979844;28;20140;-81
2022/01/08 13:39:28;;;;;;;24.77;9.65;;;;;;;;;;4978727;28;20050;-81
2022/01/08 13:42:08;;;;;;;27.13;9.75;;;;;;;;;;4995553;28;20092;-82
2022/01/08 13:44:36;;;;;;;19.23;9.45;;;;;;;;;;4965550;28;20699;-80
2022/01/08 13:47:28;;;;;;;32.53;10.40;;;;;;;;;;4984942;28;20061;-81
2022/01/08 13:49:57;;;;;;;28.17;9.10;;;;;;;;;;4976640;28;20446;-82
2022/01/08 13:52:34;;;;;;;23.27;8.60;;;;;;;;;;4975048;28;20109;-83
2022/01/08 13:55:11;;;;;;;23.88;8.60;;;;;;;;;;5001392;28;20121;-82
2022/01/08 13:57:38;;;;;;;25.88;9.93;;;;;;;;;;4980330;28;20065;-83
2022/01/08 14:00:28;;;;;;;21.30;8.77;;;;;;;;;;4994890;28;20097;-81
2022/01/08 14:02:56;;;;;;;27.05;8.90;;;;;;;;;;4991760;28;20161;-82
2022/01/08 14:05:25;;;;;;;25.30;8.77;;;;;;;;;;4994455;28;20145;-81
2022/01/08 14:07:52;;;;;;;25.52;8.60;;;;;;;;;;4998389;28;20050;-79
2022/01/08 14:10:20;;;;;;;18.90;7.82;;;;;;;;;;5000278;28;20073;-80
2022/01/08 14:13:01;;;;;;;21.05;8.32;;;;;;;;;;4970834;28;20133;-79
2022/01/08 14:15:28;;;;;;;26.85;11.38;;;;;;;;;;4977281;28;20455;-81
2022/01/08 14:17:56;;;;;;;24.15;9.02;;;;;;;;;;4977366;28;20046;-81
2022/01/08 14:20:24;;;;;;;24.67;7.57;;;;;;;;;;4968486;28;20160;-82
2022/01/08 14:22:52;;;;;;;21.13;7.78;;;;;;;;;;4987030;28;20073;-80
2022/01/08 14:25:20;;;;;;;19.33;7.82;;;;;;;;;;4979052;28;20590;-80
2022/01/08 14:27:50;;;;;;;24.60;9.25;;;;;;;;;;4981424;28;20171;-81
2022/01/08 14:30:19;;;;;;;26.02;7.50;;;;;;;;;;4970288;28;20091;-79
2022/01/08 14:32:47;;;;;;;21.17;7.32;;;;;;;;;;4972612;28;20054;-81
2022/01/08 14:35:17;;;;;;;22.80;8.02;;;;;;;;;;4980923;28;20057;-80
2022/01/08 14:37:47;;;;;;;16.23;6.60;;;;;;;;;;5001385;28;20136;-80
2022/01/08 14:40:17;;;;;;;26.85;8.18;;;;;;;;;;4988490;28;20125;-80
2022/01/08 14:42:55;;;;;;;20.60;7.90;;;;;;;;;;4990785;28;20064;-80
2022/01/08 14:45:22;;;;;;;24.35;8.30;;;;;;;;;;4975906;28;20085;-80
2022/01/08 14:47:50;;;;;;;23.10;7.68;;;;;;;;;;4975801;28;20567;-80
2022/01/08 14:50:22;;;;;;;16.70;6.85;;;;;;;;;;4981554;28;20065;-81
2022/01/08 14:52:50;;;;;;;22.33;7.15;;;;;;;;;;4960300;28;20094;-80
2022/01/08 14:55:22;;;;;;;20.08;8.30;;;;;;;;;;4961116;28;20107;-80
2022/01/08 14:57:49;;;;;;;24.80;7.75;;;;;;;;;;4974232;28;20089;-80
2022/01/08 15:00:17;;;;;;;20.38;7.05;;;;;;;;;;4990112;28;20157;-80
2022/01/08 15:02:45;;;;;;;19.55;7.32;;;;;;;;;;4969576;28;20077;-80
2022/01/08 15:05:17;;;;;;;21.75;8.20;;;;;;;;;;4975538;28;20547;-80
2022/01/08 15:07:44;;;;;;;19.00;7.97;;;;;;;;;;4983618;28;20057;-80
2022/01/08 15:10:11;;;;;;;21.95;9.70;;;;;;;;;;4975925;28;20090;-80
2022/01/08 15:12:39;;;;;;;26.45;9.02;;;;;;;;;;4993191;28;20092;-80
2022/01/08 15:15:10;;;;;;;17.20;7.95;;;;;;;;;;4992065;28;20089;-80
2022/01/08 15:17:37;;;;;;;23.48;8.95;;;;;;;;;;4992878;28;20069;-80